Time;durP1;ratioP1;P1;durP2;ratioP2;P2;SDS_P1;SDS_P2;PMS_P1;PMS_P2;Temp;Humidity;BMP_temperature;BMP_pressure;BME280_temperature;BME280_humidity;BME280_pressure;Samples;Min_cycle;Max_cycle;Signal;HPM_P1;HPM_P2
2022/07/30 00:02:05;;;;;;;5.88;3.10;;;20.50;99.90;;;;;;5085295;28;20625;-69
2022/07/30 00:04:31;;;;;;;8.70;3.20;;;20.50;99.90;;;;;;5079063;28;20038;-70
2022/07/30 00:06:58;;;;;;;9.63;3.55;;;20.50;99.90;;;;;;5078934;28;20017;-70
2022/07/30 00:09:24;;;;;;;5.38;3.33;;;20.50;99.90;;;;;;5085930;28;20024;-70
2022/07/30 00:11:50;;;;;;;10.07;3.38;;;20.50;99.90;;;;;;5094984;28;20388;-70
2022/07/30 00:14:15;;;;;;;7.53;3.05;;;20.50;99.90;;;;;;5096059;28;20031;-70
2022/07/30 00:16:41;;;;;;;3.63;2.65;;;20.50;99.90;;;;;;5092258;28;20024;-69
2022/07/30 00:19:08;;;;;;;7.35;3.08;;;20.40;99.90;;;;;;5095630;28;20024;-70
2022/07/30 00:21:34;;;;;;;7.22;3.33;;;20.40;99.90;;;;;;5089589;28;20027;-69
2022/07/30 00:24:00;;;;;;;5.03;3.20;;;20.40;99.90;;;;;;5091351;28;20028;-70
2022/07/30 00:26:26;;;;;;;5.47;3.17;;;20.40;99.90;;;;;;5087960;28;20012;-69
2022/07/30 00:28:52;;;;;;;5.22;3.25;;;20.40;99.90;;;;;;5090975;28;20027;-69
2022/07/30 00:31:18;;;;;;;4.25;3.00;;;20.40;99.90;;;;;;5085898;28;20371;-70
2022/07/30 00:33:44;;;;;;;10.30;3.67;;;20.40;99.90;;;;;;5080428;28;20029;-69
2022/07/30 00:36:09;;;;;;;4.75;2.97;;;20.40;99.90;;;;;;5091428;28;20049;-70
2022/07/30 00:38:35;;;;;;;6.78;3.55;;;20.40;99.90;;;;;;5085416;28;20107;-70
2022/07/30 00:41:01;;;;;;;7.20;3.00;;;20.40;99.90;;;;;;5095270;28;20063;-69
2022/07/30 00:43:27;;;;;;;5.97;3.50;;;20.40;99.90;;;;;;5096115;28;20068;-70
2022/07/30 00:45:53;;;;;;;6.45;3.63;;;20.40;99.90;;;;;;5094082;28;20024;-70
2022/07/30 00:48:18;;;;;;;5.93;3.20;;;20.40;99.90;;;;;;5094117;28;20012;-70
2022/07/30 00:50:44;;;;;;;9.57;2.92;;;20.40;99.90;;;;;;5093720;28;20032;-70
2022/07/30 00:53:10;;;;;;;5.82;3.17;;;20.40;99.90;;;;;;5089860;28;20040;-70
2022/07/30 00:55:36;;;;;;;6.15;3.35;;;20.40;99.90;;;;;;5089813;28;20020;-69
2022/07/30 00:58:02;;;;;;;3.53;2.75;;;20.30;99.90;;;;;;5085923;28;20017;-70
2022/07/30 01:00:28;;;;;;;6.28;3.63;;;20.30;99.90;;;;;;5091487;28;20035;-70
2022/07/30 01:02:54;;;;;;;8.07;3.50;;;20.30;99.90;;;;;;5086299;28;20030;-70
2022/07/30 01:05:20;;;;;;;5.60;3.03;;;20.30;99.90;;;;;;5097393;28;20050;-71
2022/07/30 01:07:46;;;;;;;5.78;3.42;;;20.20;99.90;;;;;;5084302;28;20020;-70
2022/07/30 01:10:15;;;;;;;6.22;3.30;;;20.20;99.90;;;;;;5097686;28;20020;-70
2022/07/30 01:12:42;;;;;;;5.63;3.30;;;20.20;99.90;;;;;;5099647;28;20035;-70
2022/07/30 01:15:09;;;;;;;5.78;3.45;;;20.20;99.90;;;;;;5097001;28;20077;-70
2022/07/30 01:17:36;;;;;;;5.68;3.20;;;20.20;99.90;;;;;;5088253;28;20504;-70
2022/07/30 01:20:05;;;;;;;6.82;3.10;;;20.20;99.90;;;;;;5096575;28;20476;-70
2022/07/30 01:22:53;;;;;;;4.05;3.28;;;20.10;99.90;;;;;;5091503;28;20504;-70
2022/07/30 01:25:31;;;;;;;7.72;3.58;;;20.10;99.90;;;;;;5087963;28;20020;-70
2022/07/30 01:28:07;;;;;;;6.00;3.38;;;20.10;99.90;;;;;;5082268;28;20027;-70
2022/07/30 01:30:37;;;;;;;4.93;3.33;;;20.10;99.90;;;;;;5091641;28;20052;-70
2022/07/30 01:33:04;;;;;;;4.38;3.08;;;20.00;99.90;;;;;;5098891;28;20061;-70
2022/07/30 01:35:33;;;;;;;4.35;3.38;;;20.00;99.90;;;;;;5090614;28;20153;-70
2022/07/30 01:38:00;;;;;;;7.70;3.67;;;20.00;99.90;;;;;;5097673;28;20164;-70
2022/07/30 01:40:27;;;;;;;4.70;3.20;;;20.00;99.90;;;;;;5098986;28;20028;-70
2022/07/30 01:42:57;;;;;;;12.18;4.10;;;20.00;99.90;;;;;;5099019;28;20516;-70
2022/07/30 01:45:25;;;;;;;9.52;3.50;;;20.00;99.90;;;;;;5099059;28;20031;-70
2022/07/30 01:47:57;;;;;;;4.85;3.33;;;20.00;99.90;;;;;;5096115;28;20017;-70
2022/07/30 01:50:23;;;;;;;5.53;3.03;;;20.00;99.90;;;;;;5098669;28;20028;-70
2022/07/30 01:52:51;;;;;;;6.32;3.10;;;20.00;99.90;;;;;;5091117;28;20052;-70
2022/07/30 01:55:24;;;;;;;3.92;3.13;;;20.00;99.90;;;;;;5094057;28;20034;-70
2022/07/30 01:57:50;;;;;;;5.95;3.08;;;20.00;99.90;;;;;;5090888;28;20119;-70
2022/07/30 02:00:17;;;;;;;4.93;3.38;;;19.90;99.90;;;;;;5091511;28;20016;-70
2022/07/30 02:02:44;;;;;;;4.88;3.85;;;19.90;99.90;;;;;;5090779;28;20047;-70
2022/07/30 02:05:10;;;;;;;7.57;3.35;;;19.90;99.90;;;;;;5087432;28;20043;-70
2022/07/30 02:07:46;;;;;;;4.40;3.03;;;19.90;99.90;;;;;;5082094;28;20008;-70
2022/07/30 02:10:16;;;;;;;5.13;3.40;;;19.90;99.90;;;;;;5082903;28;20099;-70
2022/07/30 02:12:52;;;;;;;6.55;3.90;;;19.90;99.90;;;;;;5088012;28;20384;-70
2022/07/30 02:15:33;;;;;;;6.22;3.22;;;19.90;99.90;;;;;;5084186;28;20472;-70
2022/07/30 02:18:27;;;;;;;5.22;2.75;;;19.90;99.90;;;;;;5095615;28;20012;-70
2022/07/30 02:21:03;;;;;;;8.43;3.83;;;19.80;99.90;;;;;;5085880;28;20039;-70
2022/07/30 02:23:33;;;;;;;6.60;3.55;;;19.80;99.90;;;;;;5094431;28;20020;-70
2022/07/30 02:26:00;;;;;;;5.43;3.33;;;19.80;99.90;;;;;;5094110;28;20022;-70
2022/07/30 02:28:29;;;;;;;5.60;2.97;;;19.80;99.90;;;;;;5095659;28;20263;-70
2022/07/30 02:30:59;;;;;;;5.95;3.22;;;19.70;99.90;;;;;;5096935;28;20028;-70
2022/07/30 02:33:39;;;;;;;4.68;3.15;;;19.70;99.90;;;;;;5092856;28;20028;-70
2022/07/30 02:36:08;;;;;;;5.57;4.00;;;19.60;99.90;;;;;;5097379;28;20020;-70
2022/07/30 02:38:38;;;;;;;8.73;3.95;;;19.60;99.90;;;;;;5086211;28;20036;-70
2022/07/30 02:41:06;;;;;;;3.78;3.15;;;19.60;99.90;;;;;;5095229;28;20067;-70
2022/07/30 02:43:34;;;;;;;5.18;3.10;;;19.50;99.90;;;;;;5083632;28;20025;-70
2022/07/30 02:46:01;;;;;;;9.10;3.67;;;19.50;99.90;;;;;;5096789;28;20056;-70
2022/07/30 02:48:28;;;;;;;6.55;3.80;;;19.50;99.90;;;;;;5088780;28;20431;-70
2022/07/30 02:50:56;;;;;;;8.27;3.85;;;19.50;99.90;;;;;;5084443;28;20117;-70
2022/07/30 02:53:23;;;;;;;7.10;3.93;;;19.50;99.90;;;;;;5041121;28;1355909;-70
2022/07/30 02:55:52;;;;;;;8.00;4.20;;;19.40;99.90;;;;;;5094001;28;20024;-70
2022/07/30 02:58:22;;;;;;;6.88;3.58;;;19.50;99.90;;;;;;5097484;28;20062;-70
2022/07/30 03:00:51;;;;;;;10.10;3.72;;;19.40;99.90;;;;;;5094427;28;20024;-70
2022/07/30 03:03:17;;;;;;;4.07;3.42;;;19.40;99.90;;;;;;5095535;28;20067;-70
2022/07/30 03:05:45;;;;;;;5.10;3.22;;;19.40;99.90;;;;;;5089457;28;20021;-70
2022/07/30 03:08:11;;;;;;;8.40;3.13;;;19.40;99.90;;;;;;5092517;28;20099;-70
2022/07/30 03:10:40;;;;;;;4.32;3.20;;;19.40;99.90;;;;;;5092694;28;20025;-69
2022/07/30 03:13:08;;;;;;;8.68;3.45;;;19.40;99.90;;;;;;5096206;28;20123;-70
2022/07/30 03:15:36;;;;;;;7.60;3.95;;;19.40;99.90;;;;;;5091737;28;20028;-70
2022/07/30 03:18:04;;;;;;;5.28;3.50;;;19.40;99.90;;;;;;5094534;28;20026;-70
2022/07/30 03:20:32;;;;;;;4.07;2.97;;;19.40;99.90;;;;;;5091905;28;20017;-70
2022/07/30 03:23:00;;;;;;;12.48;3.70;;;19.40;99.90;;;;;;5082652;28;20047;-70
2022/07/30 03:25:28;;;;;;;6.05;3.65;;;19.40;99.90;;;;;;5086697;28;20065;-70
2022/07/30 03:27:56;;;;;;;8.05;3.30;;;19.40;99.90;;;;;;5084631;28;20032;-70
2022/07/30 03:30:25;;;;;;;4.63;3.42;;;19.30;99.90;;;;;;5098467;28;20099;-70
2022/07/30 03:32:53;;;;;;;5.72;3.38;;;19.30;99.90;;;;;;5095538;28;20073;-70
2022/07/30 03:35:21;;;;;;;10.55;4.40;;;19.40;99.90;;;;;;5095166;28;20039;-70
2022/07/30 03:37:47;;;;;;;7.47;4.07;;;19.40;99.90;;;;;;5093479;28;20058;-70
2022/07/30 03:40:14;;;;;;;6.03;3.53;;;19.40;99.90;;;;;;5089992;28;20422;-71
2022/07/30 03:42:41;;;;;;;8.88;3.40;;;19.40;99.90;;;;;;5091223;28;20020;-70
2022/07/30 03:45:08;;;;;;;3.92;3.30;;;19.40;99.90;;;;;;5091807;28;20016;-70
2022/07/30 03:47:37;;;;;;;14.80;3.83;;;19.50;99.90;;;;;;5094932;28;20119;-70
2022/07/30 03:50:03;;;;;;;4.57;3.30;;;19.40;99.90;;;;;;5091836;28;20020;-70
2022/07/30 03:52:33;;;;;;;5.80;3.10;;;19.40;99.90;;;;;;5081473;28;20134;-69
2022/07/30 03:55:02;;;;;;;4.68;3.25;;;19.40;99.90;;;;;;5081059;28;20566;-70
2022/07/30 03:57:29;;;;;;;6.10;3.30;;;19.40;99.90;;;;;;5082143;28;20017;-70
2022/07/30 03:59:55;;;;;;;8.02;3.88;;;19.40;99.90;;;;;;5078794;28;20035;-70
2022/07/30 04:02:21;;;;;;;6.72;3.60;;;19.40;99.90;;;;;;5093402;28;20016;-70
2022/07/30 04:04:47;;;;;;;3.88;3.10;;;19.40;99.90;;;;;;5096135;28;20078;-70
2022/07/30 04:07:13;;;;;;;3.88;3.10;;;19.30;99.90;;;;;;5094710;28;20016;-70
2022/07/30 04:09:38;;;;;;;8.48;3.58;;;19.30;99.90;;;;;;5096316;28;20028;-70
2022/07/30 04:12:05;;;;;;;6.78;2.65;;;19.30;99.90;;;;;;5092850;28;20047;-70
2022/07/30 04:14:40;;;;;;;5.55;3.17;;;19.20;99.90;;;;;;5092618;28;20046;-70
2022/07/30 04:17:23;;;;;;;7.78;3.00;;;19.20;99.90;;;;;;5086388;28;20024;-70
2022/07/30 04:19:53;;;;;;;8.98;3.83;;;19.20;99.90;;;;;;5096051;28;20035;-70
2022/07/30 04:22:32;;;;;;;3.33;2.50;;;19.20;99.90;;;;;;5090154;28;20052;-70
2022/07/30 04:25:00;;;;;;;5.63;3.25;;;19.20;99.90;;;;;;5093239;28;20020;-70
2022/07/30 04:27:27;;;;;;;8.38;3.33;;;19.20;99.90;;;;;;5085556;28;20077;-70
2022/07/30 04:29:53;;;;;;;10.07;3.20;;;19.10;99.90;;;;;;5094562;28;20032;-70
2022/07/30 04:32:19;;;;;;;8.27;3.83;;;19.10;99.90;;;;;;5095871;28;20484;-70
2022/07/30 04:34:52;;;;;;;6.05;2.85;;;19.10;99.90;;;;;;5091948;28;20250;-70
2022/07/30 04:37:21;;;;;;;3.58;2.60;;;19.10;99.90;;;;;;5095813;28;20488;-70
2022/07/30 04:40:08;;;;;;;4.40;3.28;;;19.00;99.90;;;;;;5088978;28;20060;-70
2022/07/30 04:42:33;;;;;;;8.80;4.10;;;19.00;99.90;;;;;;5095904;28;20438;-70
2022/07/30 04:44:59;;;;;;;6.30;3.05;;;19.00;99.90;;;;;;5084240;28;20035;-70
2022/07/30 04:47:25;;;;;;;6.00;3.42;;;19.00;99.90;;;;;;5089211;28;20081;-69
2022/07/30 04:49:54;;;;;;;10.27;3.20;;;19.00;99.90;;;;;;5087754;28;20028;-70
2022/07/30 04:52:21;;;;;;;5.53;3.42;;;19.00;99.90;;;;;;5086990;28;20127;-70
2022/07/30 04:54:54;;;;;;;8.05;3.55;;;19.00;99.90;;;;;;5086908;28;20028;-70
2022/07/30 04:57:21;;;;;;;6.75;3.65;;;18.90;99.90;;;;;;5083330;28;20027;-70
2022/07/30 04:59:47;;;;;;;8.60;3.08;;;19.00;99.90;;;;;;5078731;28;20031;-70
2022/07/30 05:02:16;;;;;;;7.38;3.83;;;19.00;99.90;;;;;;5077349;28;20031;-70
2022/07/30 05:04:44;;;;;;;4.75;3.03;;;19.10;99.90;;;;;;5084271;28;20082;-70
2022/07/30 05:07:13;;;;;;;4.00;3.15;;;19.10;99.90;;;;;;5094161;28;20054;-70
2022/07/30 05:09:39;;;;;;;4.90;3.42;;;19.10;99.90;;;;;;5095918;28;20107;-69
2022/07/30 05:12:06;;;;;;;4.95;3.20;;;19.20;99.90;;;;;;5089791;28;20029;-70
2022/07/30 05:14:32;;;;;;;11.43;3.97;;;19.20;99.90;;;;;;5094847;28;20431;-70
2022/07/30 05:16:57;;;;;;;6.65;3.13;;;19.20;99.90;;;;;;5089983;28;20028;-70
2022/07/30 05:19:24;;;;;;;6.80;3.47;;;19.30;99.90;;;;;;5095224;28;20032;-70
2022/07/30 05:21:50;;;;;;;6.10;3.00;;;19.40;99.90;;;;;;5093006;28;20036;-71
2022/07/30 05:24:15;;;;;;;5.68;3.25;;;19.50;99.90;;;;;;5083208;28;20016;-70
2022/07/30 05:26:42;;;;;;;36.05;3.97;;;19.60;99.90;;;;;;5079030;28;20530;-70
2022/07/30 05:29:08;;;;;;;8.63;2.95;;;19.60;99.90;;;;;;5092431;28;20024;-71
2022/07/30 05:31:34;;;;;;;4.93;2.75;;;19.70;99.90;;;;;;5088437;28;20029;-72
2022/07/30 05:34:00;;;;;;;5.10;2.85;;;19.70;99.90;;;;;;5093244;28;20093;-72
2022/07/30 05:36:25;;;;;;;2.90;2.20;;;19.70;99.90;;;;;;5084170;28;20028;-72
2022/07/30 05:38:51;;;;;;;6.90;3.17;;;19.80;99.90;;;;;;5085483;28;20012;-72
2022/07/30 05:41:17;;;;;;;5.40;2.67;;;19.90;99.90;;;;;;5084231;28;20054;-72
2022/07/30 05:43:43;;;;;;;4.45;1.90;;;20.00;99.90;;;;;;5078110;28;20025;-71
2022/07/30 05:46:08;;;;;;;3.75;2.42;;;20.00;99.90;;;;;;5082176;28;20852;-71
2022/07/30 05:48:35;;;;;;;4.90;2.60;;;20.00;99.90;;;;;;5095722;28;20084;-72
2022/07/30 05:51:02;;;;;;;6.35;2.35;;;20.00;99.90;;;;;;5084052;28;20019;-71
2022/07/30 05:53:28;;;;;;;5.35;2.25;;;20.10;99.90;;;;;;5079202;28;20407;-72
2022/07/30 05:55:54;;;;;;;17.58;3.83;;;20.10;99.90;;;;;;5082459;28;20040;-71
2022/07/30 05:58:19;;;;;;;4.72;2.50;;;20.10;99.90;;;;;;5083058;28;20036;-72
2022/07/30 06:00:46;;;;;;;3.58;2.17;;;20.20;99.90;;;;;;5080027;28;20040;-72
2022/07/30 06:03:12;;;;;;;2.97;2.08;;;20.20;99.90;;;;;;5090475;28;20016;-72
2022/07/30 06:05:37;;;;;;;7.40;2.75;;;20.20;99.90;;;;;;5095455;28;20675;-72
2022/07/30 06:08:04;;;;;;;3.05;2.03;;;20.30;99.90;;;;;;5088665;28;20029;-72
2022/07/30 06:10:30;;;;;;;2.90;2.05;;;20.30;99.90;;;;;;5097425;28;20025;-72
2022/07/30 06:12:56;;;;;;;6.55;2.33;;;20.30;99.90;;;;;;5097381;28;20387;-72
2022/07/30 06:15:22;;;;;;;4.22;2.50;;;20.30;99.90;;;;;;5092454;28;20028;-72
2022/07/30 06:17:49;;;;;;;3.55;2.20;;;20.40;99.90;;;;;;5091518;28;20028;-72
2022/07/30 06:20:16;;;;;;;6.35;2.55;;;20.40;99.90;;;;;;5094173;28;20030;-71
2022/07/30 06:22:42;;;;;;;3.58;2.20;;;20.40;99.90;;;;;;5087090;28;20013;-72
2022/07/30 06:25:09;;;;;;;3.80;2.10;;;20.40;99.90;;;;;;5093593;28;20020;-72
2022/07/30 06:27:35;;;;;;;5.25;2.42;;;20.50;99.90;;;;;;5090470;28;20020;-71
2022/07/30 06:30:03;;;;;;;4.78;2.22;;;20.50;99.90;;;;;;5094597;28;20075;-72
2022/07/30 06:32:29;;;;;;;6.32;2.17;;;20.60;99.90;;;;;;5081031;28;20517;-72
2022/07/30 06:34:56;;;;;;;4.55;1.98;;;20.60;99.90;;;;;;5086031;28;20020;-72
2022/07/30 06:37:22;;;;;;;2.15;1.83;;;20.60;99.90;;;;;;5083984;28;20020;-72
2022/07/30 06:39:47;;;;;;;4.30;2.15;;;20.70;99.90;;;;;;5089215;28;20020;-72
2022/07/30 06:42:14;;;;;;;5.75;1.80;;;20.70;99.90;;;;;;5087057;28;20020;-72
2022/07/30 06:44:39;;;;;;;4.53;1.85;;;20.80;99.90;;;;;;5094917;28;20065;-72
2022/07/30 06:47:05;;;;;;;3.40;1.73;;;20.80;99.90;;;;;;5096096;28;20074;-72
2022/07/30 06:49:32;;;;;;;4.90;2.38;;;20.90;99.90;;;;;;5083165;28;20095;-71
2022/07/30 06:51:58;;;;;;;3.70;2.40;;;21.00;99.90;;;;;;5079117;28;20504;-71
2022/07/30 06:54:24;;;;;;;5.00;1.70;;;21.00;99.90;;;;;;5083496;28;20034;-72
2022/07/30 06:56:50;;;;;;;5.20;1.85;;;21.00;99.90;;;;;;5088481;28;20103;-72
2022/07/30 06:59:16;;;;;;;3.35;1.92;;;21.10;99.90;;;;;;5095104;28;20031;-72
2022/07/30 07:01:42;;;;;;;3.10;1.60;;;21.10;99.90;;;;;;5098555;28;20027;-72
2022/07/30 07:04:08;;;;;;;4.88;2.03;;;21.20;99.90;;;;;;5096596;28;20016;-72
2022/07/30 07:06:34;;;;;;;2.58;1.80;;;21.30;99.90;;;;;;5098712;28;20031;-73
2022/07/30 07:09:00;;;;;;;1.70;1.35;;;21.40;99.90;;;;;;5097101;28;20545;-72
2022/07/30 07:11:25;;;;;;;5.15;1.88;;;21.50;99.90;;;;;;5090996;28;20020;-72
2022/07/30 07:13:51;;;;;;;1.90;1.52;;;21.60;99.90;;;;;;5092439;28;20031;-72
2022/07/30 07:16:23;;;;;;;4.80;2.10;;;21.70;99.90;;;;;;5084560;28;20079;-73
2022/07/30 07:18:53;;;;;;;2.97;1.70;;;21.70;99.90;;;;;;5084879;28;20543;-72
2022/07/30 07:21:19;;;;;;;2.75;1.70;;;21.90;99.90;;;;;;5078816;28;20100;-72
2022/07/30 07:23:47;;;;;;;3.53;2.00;;;21.90;99.90;;;;;;5082937;28;20468;-71
2022/07/30 07:26:14;;;;;;;6.82;1.90;;;22.00;99.90;;;;;;5080706;28;20023;-72
2022/07/30 07:28:40;;;;;;;5.95;2.00;;;22.10;99.90;;;;;;5079574;28;20511;-72
2022/07/30 07:31:07;;;;;;;3.28;1.92;;;22.20;99.90;;;;;;5086543;28;20054;-73
2022/07/30 07:33:32;;;;;;;2.97;1.80;;;22.20;99.90;;;;;;5081047;28;20023;-72
2022/07/30 07:35:58;;;;;;;3.80;1.90;;;22.30;99.90;;;;;;5089115;28;20021;-72
2022/07/30 07:38:24;;;;;;;2.20;1.65;;;22.30;99.90;;;;;;5082184;28;20029;-73
2022/07/30 07:40:50;;;;;;;2.25;1.30;;;22.40;99.90;;;;;;5093201;28;20031;-72
2022/07/30 07:43:16;;;;;;;1.95;1.40;;;22.40;99.90;;;;;;5083512;28;20020;-72
2022/07/30 07:45:42;;;;;;;3.90;1.75;;;22.30;99.90;;;;;;5085582;28;20020;-72
2022/07/30 07:48:08;;;;;;;2.53;1.73;;;22.30;99.90;;;;;;5089565;28;20474;-72
2022/07/30 07:50:34;;;;;;;6.28;1.55;;;22.30;99.90;;;;;;5086741;28;20086;-72
2022/07/30 07:53:00;;;;;;;3.95;1.35;;;22.30;99.90;;;;;;5080782;28;20048;-72
2022/07/30 07:55:26;;;;;;;2.65;1.63;;;22.20;99.90;;;;;;5091670;28;20028;-73
2022/07/30 07:57:52;;;;;;;2.85;1.35;;;22.40;99.90;;;;;;5090570;28;20070;-72
2022/07/30 08:00:18;;;;;;;2.85;1.85;;;22.50;99.90;;;;;;5077101;28;20021;-72
2022/07/30 08:02:44;;;;;;;5.28;1.70;;;22.70;99.90;;;;;;5082338;28;20570;-72
2022/07/30 08:05:11;;;;;;;3.22;1.50;;;22.90;99.90;;;;;;5078602;28;20020;-73
2022/07/30 08:07:41;;;;;;;10.27;1.60;;;23.10;99.90;;;;;;5080496;28;20028;-72
2022/07/30 08:10:08;;;;;;;3.60;1.23;;;23.30;99.90;;;;;;5078365;28;20385;-72
2022/07/30 08:12:34;;;;;;;5.03;1.45;;;23.40;99.90;;;;;;5087663;28;20036;-72
2022/07/30 08:15:00;;;;;;;2.15;1.02;;;23.50;99.90;;;;;;5080621;28;20027;-72
2022/07/30 08:17:26;;;;;;;2.15;1.27;;;23.60;99.90;;;;;;5083007;28;20028;-72
2022/07/30 08:19:52;;;;;;;1.88;1.20;;;23.70;99.90;;;;;;5093930;28;20031;-72
2022/07/30 08:22:18;;;;;;;3.55;1.50;;;23.80;99.90;;;;;;5093719;28;20069;-72
2022/07/30 08:24:43;;;;;;;2.60;1.35;;;23.90;99.90;;;;;;5094796;28;20024;-72
2022/07/30 08:27:09;;;;;;;5.05;1.70;;;23.80;99.90;;;;;;5091491;28;20069;-72
2022/07/30 08:29:35;;;;;;;3.00;0.93;;;23.80;99.90;;;;;;5094694;28;20476;-72
2022/07/30 08:32:01;;;;;;;1.65;1.00;;;23.70;99.90;;;;;;5095261;28;20020;-73
2022/07/30 08:34:28;;;;;;;2.45;1.52;;;23.80;99.90;;;;;;5095468;28;20024;-72
2022/07/30 08:36:54;;;;;;;6.30;1.38;;;23.80;99.90;;;;;;5085347;28;20399;-73
2022/07/30 08:39:20;;;;;;;2.47;1.00;;;23.90;99.90;;;;;;5095240;28;20024;-73
2022/07/30 08:41:47;;;;;;;4.63;1.00;;;24.10;99.90;;;;;;5086824;28;20071;-73
2022/07/30 08:44:17;;;;;;;1.73;0.95;;;24.30;99.90;;;;;;5093246;28;20387;-73
2022/07/30 08:46:44;;;;;;;2.07;1.07;;;24.30;99.90;;;;;;5092118;28;20020;-72
2022/07/30 08:49:11;;;;;;;3.03;1.27;;;24.20;99.90;;;;;;5090517;28;20262;-72
2022/07/30 08:51:37;;;;;;;1.95;1.02;;;24.00;99.90;;;;;;5080580;28;20131;-73
2022/07/30 08:54:04;;;;;;;3.65;1.35;;;24.00;99.90;;;;;;5082906;28;20471;-73
2022/07/30 08:56:32;;;;;;;4.22;1.02;;;24.10;99.90;;;;;;5078466;28;20394;-72
2022/07/30 08:59:01;;;;;;;2.42;1.30;;;24.00;99.90;;;;;;5078815;28;20029;-73
2022/07/30 09:01:27;;;;;;;2.28;1.10;;;24.00;99.90;;;;;;5085301;28;20119;-72
2022/07/30 09:03:53;;;;;;;3.55;1.40;;;24.00;99.90;;;;;;5094506;28;20078;-72
2022/07/30 09:06:19;;;;;;;2.45;1.33;;;24.10;99.90;;;;;;5096854;28;20027;-73
2022/07/30 09:08:45;;;;;;;2.83;1.13;;;24.10;99.90;;;;;;5092219;28;20502;-73
2022/07/30 09:11:11;;;;;;;2.58;1.20;;;24.30;99.90;;;;;;5093360;28;20021;-72
2022/07/30 09:13:43;;;;;;;5.85;1.30;;;24.40;99.90;;;;;;5088394;28;20499;-72
2022/07/30 09:16:23;;;;;;;3.50;1.80;;;24.40;99.90;;;;;;5090059;28;20020;-73
2022/07/30 09:18:51;;;;;;;3.00;1.13;;;24.50;99.90;;;;;;5089871;28;20047;-73
2022/07/30 09:21:22;;;;;;;2.60;1.13;;;24.80;99.90;;;;;;5093517;28;20021;-73
2022/07/30 09:24:01;;;;;;;4.40;1.55;;;25.00;99.90;;;;;;5093895;28;20020;-73
2022/07/30 09:26:28;;;;;;;1.67;1.10;;;25.10;99.90;;;;;;5089348;28;20034;-73
2022/07/30 09:29:13;;;;;;;1.80;1.05;;;25.10;99.90;;;;;;5093471;28;20057;-72
2022/07/30 09:31:59;;;;;;;2.45;0.82;;;25.00;99.90;;;;;;5088519;28;20056;-72
2022/07/30 09:34:38;;;;;;;1.50;1.00;;;24.90;99.90;;;;;;5089859;28;20454;-73
2022/07/30 09:37:17;;;;;;;3.20;1.43;;;25.00;99.90;;;;;;5092498;28;20551;-72
2022/07/30 09:39:43;;;;;;;2.75;1.45;;;25.20;99.90;;;;;;5095858;28;20031;-73
2022/07/30 09:42:24;;;;;;;1.90;1.10;;;25.20;99.90;;;;;;5090768;28;20126;-72
2022/07/30 09:44:51;;;;;;;2.42;1.25;;;25.30;99.90;;;;;;5096341;28;20024;-71
2022/07/30 09:47:30;;;;;;;2.13;1.20;;;25.30;99.90;;;;;;5097494;28;20024;-71
2022/07/30 09:50:28;;;;;;;1.38;0.90;;;25.30;99.90;;;;;;5098803;28;20028;-72
2022/07/30 09:53:04;;;;;;;4.45;1.08;;;25.30;99.90;;;;;;5082228;28;20049;-72
2022/07/30 09:55:34;;;;;;;3.88;1.00;;;25.30;99.90;;;;;;5084867;28;20031;-74
2022/07/30 09:58:02;;;;;;;;;;;25.30;99.90;;;;;;5088352;28;20032;-73
2022/07/30 10:00:30;;;;;;;3.28;1.00;;;25.30;99.90;;;;;;5084481;28;19905;-73
2022/07/30 10:02:56;;;;;;;2.78;1.30;;;25.30;99.90;;;;;;5088051;28;20031;-73
2022/07/30 10:05:23;;;;;;;2.33;1.20;;;25.40;99.90;;;;;;5086380;28;20048;-72
2022/07/30 10:07:59;;;;;;;1.77;1.10;;;25.60;99.90;;;;;;5081289;28;20507;-72
2022/07/30 10:10:27;;;;;;;3.50;1.10;;;26.10;99.90;;;;;;5093431;28;20031;-73
2022/07/30 10:13:01;;;;;;;0.90;0.73;;;26.00;99.90;;;;;;5094990;28;20031;-72
2022/07/30 10:15:33;;;;;;;2.53;1.17;;;26.10;99.90;;;;;;5094876;28;20016;-72
2022/07/30 10:18:00;;;;;;;3.72;1.30;;;26.30;99.90;;;;;;5099933;28;20024;-73
2022/07/30 10:20:27;;;;;;;2.58;0.95;;;26.50;99.90;;;;;;5090769;28;20028;-72
2022/07/30 10:22:53;;;;;;;3.53;1.02;;;26.60;99.90;;;;;;5089168;28;20023;-72
2022/07/30 10:25:21;;;;;;;3.00;1.10;;;26.60;99.90;;;;;;5090964;28;20028;-72
2022/07/30 10:27:48;;;;;;;2.40;1.23;;;26.70;99.90;;;;;;5089352;28;20432;-73
2022/07/30 10:30:14;;;;;;;2.60;1.40;;;27.10;99.90;;;;;;5083347;28;20048;-73
2022/07/30 10:32:40;;;;;;;2.80;1.10;;;27.20;99.90;;;;;;5080853;28;20085;-73
2022/07/30 10:35:08;;;;;;;2.53;1.30;;;27.00;99.90;;;;;;5087716;28;20056;-73
2022/07/30 10:37:36;;;;;;;1.73;1.10;;;26.70;99.90;;;;;;5089312;28;20024;-72
2022/07/30 10:40:17;;;;;;;1.63;0.98;;;26.70;99.90;;;;;;5079002;28;20548;-72
2022/07/30 10:42:52;;;;;;;2.90;1.30;;;26.90;99.90;;;;;;5091557;28;20020;-72
2022/07/30 10:45:25;;;;;;;2.92;1.15;;;27.20;99.90;;;;;;5080623;28;20020;-71
2022/07/30 10:47:53;;;;;;;2.72;1.15;;;27.40;99.90;;;;;;5091470;28;20038;-72
2022/07/30 10:50:25;;;;;;;4.03;1.55;;;27.70;99.90;;;;;;5080143;28;20029;-72
2022/07/30 10:52:56;;;;;;;2.58;1.40;;;27.50;99.90;;;;;;5082178;28;20040;-71
2022/07/30 10:55:28;;;;;;;3.33;1.50;;;27.20;99.90;;;;;;5080166;28;20473;-72
2022/07/30 10:58:03;;;;;;;2.65;1.05;;;27.30;99.90;;;;;;5095587;28;20099;-72
2022/07/30 11:00:32;;;;;;;2.53;1.17;;;27.50;99.90;;;;;;5080035;28;20088;-71
2022/07/30 11:03:27;;;;;;;2.95;1.35;;;27.70;99.90;;;;;;5085010;28;20016;-72
2022/07/30 11:06:15;;;;;;;5.43;1.27;;;27.40;99.30;;;;;;5093428;28;20016;-71
2022/07/30 11:08:47;;;;;;;2.40;1.10;;;27.20;99.50;;;;;;5084319;28;20028;-72
2022/07/30 11:11:21;;;;;;;4.47;1.20;;;27.30;99.90;;;;;;5080051;28;20037;-71
2022/07/30 11:13:55;;;;;;;4.22;1.20;;;27.40;99.90;;;;;;5084295;28;20035;-71
2022/07/30 11:16:23;;;;;;;2.60;1.15;;;27.40;99.90;;;;;;5088106;28;20028;-71
2022/07/30 11:19:07;;;;;;;4.40;1.58;;;27.50;99.90;;;;;;5088352;28;20082;-71
2022/07/30 11:21:34;;;;;;;3.13;1.70;;;27.40;99.40;;;;;;5096519;28;20094;-72
2022/07/30 11:24:00;;;;;;;3.97;1.10;;;27.40;98.90;;;;;;5095601;28;20012;-72
2022/07/30 11:26:40;;;;;;;3.25;1.52;;;27.50;98.90;;;;;;5093377;28;20024;-71
2022/07/30 11:29:07;;;;;;;3.60;1.50;;;27.60;98.80;;;;;;5092650;28;20506;-71
2022/07/30 11:31:38;;;;;;;3.40;1.63;;;27.50;97.80;;;;;;5096133;28;20039;-71
2022/07/30 11:34:19;;;;;;;5.13;1.20;;;27.70;97.70;;;;;;5088583;28;20042;-72
2022/07/30 11:37:03;;;;;;;4.15;1.27;;;28.10;98.60;;;;;;5097917;28;20024;-72
2022/07/30 11:39:54;;;;;;;3.58;1.38;;;28.40;97.00;;;;;;5095966;28;20020;-72
2022/07/30 11:42:31;;;;;;;3.33;1.55;;;28.70;96.70;;;;;;5094244;28;20035;-71
2022/07/30 11:45:15;;;;;;;2.00;1.42;;;28.60;95.40;;;;;;5090662;28;20020;-71
2022/07/30 11:47:53;;;;;;;4.43;1.88;;;28.80;95.90;;;;;;5077017;28;20044;-71
2022/07/30 11:50:21;;;;;;;2.30;1.17;;;29.00;95.00;;;;;;5079069;28;20020;-71
2022/07/30 11:53:01;;;;;;;3.60;1.33;;;28.90;95.30;;;;;;5084813;28;20085;-71
2022/07/30 11:55:35;;;;;;;5.53;1.20;;;29.30;95.50;;;;;;5079370;28;20111;-71
2022/07/30 11:58:04;;;;;;;3.03;1.52;;;29.20;93.90;;;;;;5080287;28;20024;-72
2022/07/30 12:00:39;;;;;;;4.93;1.63;;;29.10;94.10;;;;;;5079354;28;20029;-72
2022/07/30 12:03:13;;;;;;;5.07;2.08;;;28.90;95.10;;;;;;5080050;28;20071;-71
2022/07/30 12:05:39;;;;;;;4.43;1.50;;;28.90;94.50;;;;;;5075223;28;20060;-72
2022/07/30 12:08:05;;;;;;;2.45;1.10;;;28.60;94.50;;;;;;5077683;28;20027;-71
2022/07/30 12:10:31;;;;;;;2.70;1.40;;;28.50;95.20;;;;;;5076153;28;20495;-71
2022/07/30 12:13:14;;;;;;;2.25;1.10;;;28.50;94.80;;;;;;5077568;28;20074;-71
2022/07/30 12:15:42;;;;;;;3.95;1.70;;;28.60;94.80;;;;;;5080290;28;20036;-71
2022/07/30 12:18:12;;;;;;;2.80;1.30;;;28.70;94.20;;;;;;5075313;28;20074;-71
2022/07/30 12:20:39;;;;;;;4.75;1.60;;;28.90;95.00;;;;;;5076832;28;20032;-72
2022/07/30 12:23:12;;;;;;;3.55;1.20;;;29.10;93.30;;;;;;5075262;28;20066;-72
2022/07/30 12:25:42;;;;;;;2.40;1.38;;;29.10;93.10;;;;;;5075234;28;20386;-71
2022/07/30 12:28:09;;;;;;;2.53;1.30;;;29.20;92.60;;;;;;5075462;28;20013;-71
2022/07/30 12:30:39;;;;;;;3.92;1.10;;;29.20;93.10;;;;;;5086024;28;20664;-71
2022/07/30 12:33:06;;;;;;;3.90;1.20;;;29.30;93.10;;;;;;5071874;28;20024;-70
2022/07/30 12:35:48;;;;;;;5.30;1.13;;;29.40;92.90;;;;;;5075523;28;20029;-70
2022/07/30 12:38:15;;;;;;;5.32;1.20;;;29.20;92.50;;;;;;5074698;28;20016;-71
2022/07/30 12:40:51;;;;;;;2.45;1.10;;;29.10;93.00;;;;;;5077557;28;20039;-70
2022/07/30 12:43:17;;;;;;;2.30;1.38;;;28.80;92.30;;;;;;5074863;28;20017;-71
2022/07/30 12:45:43;;;;;;;2.25;1.35;;;28.40;93.10;;;;;;5073710;28;20040;-71
2022/07/30 12:48:10;;;;;;;3.05;1.48;;;28.30;93.40;;;;;;5077506;28;20577;-71
2022/07/30 12:50:36;;;;;;;2.53;1.52;;;28.10;93.30;;;;;;5077875;28;20074;-71
2022/07/30 12:53:02;;;;;;;3.55;1.50;;;28.00;93.50;;;;;;5075754;28;20037;-71
2022/07/30 12:55:31;;;;;;;3.50;1.45;;;28.00;93.40;;;;;;5079188;28;20092;-71